createdAt,value
2022-11-10T00:01:44.369Z,3.00
2022-11-10T00:04:31.244Z,4.00
2022-11-10T00:07:17.513Z,4.00
2022-11-10T00:10:04.470Z,4.67
2022-11-10T00:12:50.063Z,5.00
2022-11-10T00:15:44.310Z,3.25
2022-11-10T00:18:29.976Z,4.25
2022-11-10T00:21:18.151Z,4.50
2022-11-10T00:24:06.877Z,5.67
2022-11-10T00:26:52.581Z,5.00
2022-11-10T00:29:37.898Z,4.00
2022-11-10T00:32:26.528Z,5.25
2022-11-10T00:35:12.280Z,7.00
2022-11-10T00:38:02.361Z,7.67
2022-11-10T00:40:48.332Z,6.00
2022-11-10T00:43:36.875Z,4.75
2022-11-10T00:46:23.206Z,4.00
2022-11-10T00:49:08.628Z,4.33
2022-11-10T00:51:54.448Z,4.33
2022-11-10T00:54:46.441Z,3.00
2022-11-10T00:57:31.699Z,3.50
2022-11-10T01:00:18.001Z,4.00
2022-11-10T01:03:13.278Z,4.00
2022-11-10T01:06:05.300Z,4.33
2022-11-10T01:08:50.548Z,5.50
2022-11-10T01:11:41.729Z,8.00
2022-11-10T01:14:28.706Z,6.00
2022-11-10T01:17:14.271Z,7.67
2022-11-10T01:20:00.674Z,5.00
2022-11-10T01:22:46.600Z,5.00
2022-11-10T01:25:32.115Z,5.00
2022-11-10T01:28:19.745Z,3.50
2022-11-10T01:31:18.950Z,5.00
2022-11-10T01:34:04.738Z,4.67
2022-11-10T01:36:50.342Z,5.00
2022-11-10T01:39:36.518Z,6.25
2022-11-10T01:42:27.793Z,5.00
2022-11-10T01:45:54.563Z,5.75
2022-11-10T01:48:46.715Z,4.33
2022-11-10T01:51:39.457Z,6.00
2022-11-10T01:54:30.602Z,4.00
2022-11-10T01:57:17.629Z,4.33
2022-11-10T02:00:05.036Z,4.00
2022-11-10T02:03:03.529Z,6.00
2022-11-10T02:05:50.543Z,4.00
2022-11-10T02:08:36.831Z,5.00
2022-11-10T02:11:23.445Z,9.00
2022-11-10T02:14:09.854Z,8.25
2022-11-10T02:16:55.212Z,4.00
2022-11-10T02:19:42.529Z,8.25
2022-11-10T02:22:29.407Z,5.00
2022-11-10T02:25:21.250Z,8.00
2022-11-10T02:28:07.478Z,10.00
2022-11-10T02:30:54.447Z,12.25
2022-11-10T02:33:40.398Z,12.50
2022-11-10T02:36:25.814Z,8.25
2022-11-10T02:39:12.882Z,11.00
2022-11-10T02:41:59.065Z,13.75
2022-11-10T02:44:44.403Z,15.00
2022-11-10T02:47:30.214Z,17.00
2022-11-10T02:50:16.533Z,16.75
2022-11-10T02:53:02.502Z,19.75
2022-11-10T02:55:49.508Z,20.50
2022-11-10T02:58:34.933Z,23.75
2022-11-10T03:01:20.879Z,28.25
2022-11-10T03:04:06.602Z,5.75
2022-11-10T03:06:52.269Z,4.75
2022-11-10T03:09:37.982Z,4.00
2022-11-10T03:12:24.908Z,3.75
2022-11-10T03:15:10.751Z,4.00
2022-11-10T03:17:56.886Z,4.50
2022-11-10T03:20:42.327Z,4.25
2022-11-10T03:23:28.003Z,5.00
2022-11-10T03:26:13.799Z,3.00
2022-11-10T03:29:00.673Z,5.00
2022-11-10T03:31:46.445Z,3.50
2022-11-10T03:34:32.333Z,4.00
2022-11-10T03:37:18.619Z,5.25
2022-11-10T03:40:05.546Z,4.25
2022-11-10T03:42:51.660Z,5.00
2022-11-10T03:45:38.662Z,6.50
2022-11-10T03:48:24.045Z,7.00
2022-11-10T03:51:09.452Z,5.50
2022-11-10T03:53:54.830Z,7.00
2022-11-10T03:56:40.101Z,5.00
2022-11-10T03:59:25.553Z,7.25
2022-11-10T04:02:12.434Z,6.75
2022-11-10T04:04:58.325Z,6.50
2022-11-10T04:07:44.083Z,5.00
2022-11-10T04:10:31.664Z,6.00
2022-11-10T04:13:17.352Z,5.50
2022-11-10T04:16:03.099Z,6.50
2022-11-10T04:18:50.035Z,5.25
2022-11-10T04:21:35.643Z,5.25
2022-11-10T04:24:21.484Z,13.25
2022-11-10T04:27:06.961Z,8.75
2022-11-10T04:29:52.837Z,6.75
2022-11-10T04:32:38.442Z,8.25
2022-11-10T04:35:24.993Z,8.50
2022-11-10T04:38:10.609Z,7.75
2022-11-10T04:40:56.930Z,6.00
2022-11-10T04:43:44.280Z,6.25
2022-11-10T04:46:32.914Z,3.25
2022-11-10T04:49:18.922Z,8.25
2022-11-10T04:52:06.331Z,8.00
2022-11-10T04:54:52.192Z,6.50
2022-11-10T04:57:37.613Z,7.75
2022-11-10T05:00:23.543Z,8.25
2022-11-10T05:03:14.841Z,7.50
2022-11-10T05:06:10.923Z,8.75
2022-11-10T05:09:08.172Z,7.50
2022-11-10T05:11:56.678Z,8.00
2022-11-10T05:14:43.029Z,8.75
2022-11-10T05:17:29.818Z,12.00
2022-11-10T05:20:16.060Z,20.00
2022-11-10T05:23:02.808Z,13.50
2022-11-10T05:25:50.401Z,9.75
2022-11-10T05:28:37.375Z,7.75
2022-11-10T05:31:31.423Z,9.00
2022-11-10T05:34:17.570Z,7.75
2022-11-10T05:37:03.601Z,8.25
2022-11-10T05:39:52.957Z,7.25
2022-11-10T05:42:44.620Z,8.75
2022-11-10T05:45:35.366Z,13.25
2022-11-10T05:48:24.340Z,7.25
2022-11-10T05:51:12.372Z,22.50
2022-11-10T05:54:12.989Z,17.00
2022-11-10T05:56:58.706Z,0.00
2022-11-10T05:59:54.495Z,12.25
2022-11-10T06:02:42.404Z,8.50
2022-11-10T06:05:31.423Z,11.25
2022-11-10T06:08:19.920Z,10.00
2022-11-10T06:11:07.143Z,9.00
2022-11-10T06:13:53.226Z,10.25
2022-11-10T06:16:44.192Z,10.50
2022-11-10T06:19:44.468Z,7.50
2022-11-10T06:22:34.484Z,9.25
2022-11-10T06:26:08.124Z,9.50
2022-11-10T06:28:39.261Z,8.00
2022-11-10T06:31:35.681Z,6.00
2022-11-10T06:34:32.393Z,8.25
2022-11-10T06:40:47.333Z,6.00
2022-11-10T06:44:14.734Z,7.00
2022-11-10T06:47:02.218Z,7.25
2022-11-10T06:50:10.739Z,8.50
2022-11-10T06:53:00.114Z,8.75
2022-11-10T06:56:03.849Z,6.25
2022-11-10T06:58:59.509Z,12.75
2022-11-10T07:05:22.789Z,5.67
2022-11-10T07:08:12.459Z,5.00
2022-11-10T07:11:00.788Z,4.67
2022-11-10T09:16:38.659Z,2.40
2022-11-10T09:19:24.555Z,2.20
2022-11-10T09:22:10.366Z,3.00
2022-11-10T09:24:56.558Z,0.80
2022-11-10T09:27:42.347Z,3.00
2022-11-10T09:30:28.593Z,3.00
2022-11-10T09:33:16.846Z,3.00
2022-11-10T09:36:06.718Z,2.00
2022-11-10T09:38:52.545Z,2.00
2022-11-10T09:41:42.698Z,2.60
2022-11-10T09:44:35.749Z,2.00
2022-11-10T09:47:56.248Z,2.00
2022-11-10T09:50:49.440Z,1.00
2022-11-10T09:53:43.344Z,1.40
2022-11-10T09:56:35.300Z,2.80
2022-11-10T09:59:27.646Z,1.80
2022-11-10T10:02:30.512Z,2.60
2022-11-10T10:05:58.349Z,1.60
2022-11-10T10:08:59.100Z,2.40
2022-11-10T10:12:03.628Z,1.00
2022-11-10T10:15:15.194Z,2.00
2022-11-10T10:18:22.980Z,1.00
2022-11-10T10:21:35.128Z,2.00
2022-11-10T10:24:24.947Z,1.00
2022-11-10T10:27:19.994Z,2.00
2022-11-10T10:30:13.950Z,1.20
2022-11-10T10:33:15.671Z,2.00
2022-11-10T10:36:09.500Z,2.00
2022-11-10T10:39:02.916Z,3.00
2022-11-10T10:41:48.580Z,2.00
2022-11-10T10:44:37.729Z,1.00
2022-11-10T10:47:37.324Z,1.20
2022-11-10T10:50:28.769Z,2.00
2022-11-10T10:53:18.603Z,2.00
2022-11-10T10:56:17.537Z,2.20
2022-11-10T10:59:05.313Z,2.00
2022-11-10T11:01:54.164Z,0.00
2022-11-10T11:04:39.731Z,2.00
2022-11-10T11:24:24.427Z,1.40
2022-11-10T11:27:18.625Z,1.00
2022-11-10T11:30:13.552Z,1.00
2022-11-10T11:33:25.167Z,1.00
2022-11-10T11:36:30.600Z,2.00
2022-11-10T11:39:35.341Z,1.00
2022-11-10T11:42:42.240Z,1.00
2022-11-10T11:45:45.535Z,1.00
2022-11-10T11:48:51.377Z,0.20
2022-11-10T11:51:48.603Z,1.60
2022-11-10T11:54:59.620Z,1.80
2022-11-10T11:58:08.686Z,0.20
2022-11-10T12:01:18.960Z,1.00
2022-11-10T12:04:49.924Z,1.60
2022-11-10T12:07:58.073Z,1.00
2022-11-10T12:11:09.127Z,1.60
2022-11-10T12:14:12.018Z,0.00
2022-11-10T12:17:10.456Z,0.40
2022-11-10T12:20:21.592Z,1.00
2022-11-10T12:23:21.227Z,0.80
2022-11-10T12:26:27.380Z,1.00
2022-11-10T12:29:26.628Z,1.00
2022-11-10T12:32:21.494Z,0.00
2022-11-10T12:35:18.352Z,1.00
2022-11-10T12:38:11.872Z,1.00
2022-11-10T12:41:06.969Z,1.00
2022-11-10T12:44:08.195Z,1.40
2022-11-10T12:46:58.512Z,1.00
2022-11-10T12:50:01.832Z,0.40
2022-11-10T12:52:55.048Z,1.20
2022-11-10T12:55:47.106Z,1.00
2022-11-10T12:58:34.141Z,1.00
2022-11-10T13:05:32.405Z,1.20
2022-11-10T13:08:35.940Z,1.00
2022-11-10T13:11:27.849Z,0.00
2022-11-10T13:14:24.576Z,1.00
2022-11-10T13:17:55.054Z,0.20
2022-11-10T13:20:52.511Z,0.80
2022-11-10T13:24:41.559Z,0.00
2022-11-10T13:27:52.500Z,0.00
2022-11-10T13:30:44.194Z,0.60
2022-11-10T13:33:36.328Z,0.00
2022-11-10T13:36:36.833Z,0.00
2022-11-10T13:39:26.852Z,0.00
2022-11-10T13:42:22.244Z,0.00
2022-11-10T13:45:31.545Z,1.00
2022-11-10T13:48:47.460Z,0.00
2022-11-10T13:51:45.426Z,0.00
2022-11-10T13:55:05.881Z,0.00
2022-11-10T13:58:02.031Z,0.00
2022-11-10T14:01:11.168Z,1.00
2022-11-10T14:04:00.994Z,0.00
2022-11-10T14:06:52.776Z,1.00
2022-11-10T14:09:42.946Z,0.40
2022-11-10T14:12:45.560Z,0.00
2022-11-10T14:15:41.894Z,0.00
2022-11-10T14:18:38.966Z,1.00
2022-11-10T14:21:45.442Z,0.00
2022-11-10T14:24:38.638Z,1.00
2022-11-10T14:27:28.462Z,0.00
2022-11-10T14:30:24.312Z,0.25
2022-11-10T14:33:14.550Z,1.00
2022-11-10T14:36:04.141Z,1.00
2022-11-10T14:38:52.736Z,0.25
2022-11-10T14:41:49.974Z,1.25
2022-11-10T14:44:35.831Z,1.00
2022-11-10T14:47:28.275Z,1.00
2022-11-10T14:50:22.227Z,1.00
2022-11-10T14:53:22.016Z,1.00
2022-11-10T14:56:19.137Z,2.00
2022-11-10T14:59:14.933Z,0.25
2022-11-10T15:02:10.674Z,0.00
2022-11-10T15:05:01.263Z,0.00
2022-11-10T15:07:51.277Z,0.25
2022-11-10T15:10:52.455Z,2.75
2022-11-10T15:13:39.940Z,1.00
2022-11-10T15:16:28.923Z,1.00
2022-11-10T15:19:26.546Z,1.00
2022-11-10T15:22:19.253Z,0.00
2022-11-10T15:25:15.721Z,0.00
2022-11-10T15:28:06.234Z,0.75
2022-11-10T15:30:57.262Z,0.50
2022-11-10T15:33:47.984Z,0.00
2022-11-10T15:36:36.978Z,1.00
2022-11-10T15:39:24.200Z,1.25
2022-11-10T15:42:15.284Z,1.00
2022-11-10T15:45:00.643Z,0.25
2022-11-10T15:47:47.491Z,1.00
2022-11-10T15:50:33.682Z,5.00
2022-11-10T15:54:08.894Z,1.25
2022-11-10T16:01:46.909Z,1.00
2022-11-10T16:04:59.926Z,2.00
2022-11-10T16:08:27.111Z,2.00
2022-11-10T16:11:31.087Z,3.00
2022-11-10T16:14:26.643Z,2.00
2022-11-10T16:17:16.629Z,2.50
2022-11-10T16:20:22.059Z,2.75
2022-11-10T16:23:13.110Z,3.00
2022-11-10T16:26:15.122Z,2.25
2022-11-10T16:29:17.078Z,2.00
2022-11-10T16:32:04.087Z,2.00
2022-11-10T16:34:55.319Z,2.00
2022-11-10T16:37:51.818Z,2.00
2022-11-10T16:40:38.200Z,3.00
2022-11-10T16:43:40.603Z,2.33
2022-11-10T16:46:31.063Z,3.00
2022-11-10T16:49:37.265Z,10.75
2022-11-10T17:02:01.056Z,4.25
2022-11-10T17:05:51.132Z,24.25
2022-11-10T17:11:57.948Z,20.50
2022-11-10T17:14:45.184Z,5.50
2022-11-10T17:17:35.333Z,5.75
2022-11-10T17:20:28.526Z,4.25
2022-11-10T17:23:19.752Z,4.00
2022-11-10T17:26:08.442Z,3.00
2022-11-10T17:28:54.314Z,2.00
2022-11-10T17:31:40.319Z,3.00
2022-11-10T17:34:28.540Z,4.00
2022-11-10T17:37:19.051Z,4.00
2022-11-10T17:40:19.702Z,3.00
2022-11-10T17:43:10.751Z,3.00
2022-11-10T17:46:01.091Z,3.00
2022-11-10T17:48:46.785Z,4.00
2022-11-10T17:51:35.859Z,5.25
2022-11-10T17:54:24.235Z,5.50
2022-11-10T17:57:11.236Z,5.25
2022-11-10T17:59:57.296Z,6.75
2022-11-10T18:02:44.092Z,5.25
2022-11-10T18:05:29.740Z,0.00
2022-11-10T18:08:17.916Z,7.25
2022-11-10T18:11:03.398Z,7.00
2022-11-10T18:13:49.214Z,8.50
2022-11-10T18:16:34.970Z,6.00
2022-11-10T18:19:20.295Z,6.00
2022-11-10T18:22:06.413Z,6.25
2022-11-10T18:24:53.417Z,7.25
2022-11-10T18:27:39.004Z,8.75
2022-11-10T18:30:24.811Z,9.00
2022-11-10T18:33:12.045Z,8.75
2022-11-10T18:35:59.207Z,8.75
2022-11-10T18:38:44.630Z,7.00
2022-11-10T18:41:31.628Z,10.50
2022-11-10T18:44:18.793Z,9.25
2022-11-10T18:47:05.425Z,10.50
2022-11-10T18:49:50.540Z,13.25
2022-11-10T18:52:36.107Z,12.25
2022-11-10T18:55:21.849Z,16.50
2022-11-10T18:58:10.301Z,15.50
2022-11-10T19:01:03.068Z,13.50
2022-11-10T19:03:49.693Z,13.25
2022-11-10T19:06:36.447Z,21.25
2022-11-10T19:09:25.594Z,21.75
2022-11-10T19:12:12.970Z,23.00
2022-11-10T19:15:00.673Z,21.00
2022-11-10T19:17:46.636Z,16.25
2022-11-10T19:20:35.653Z,14.50
2022-11-10T19:23:21.822Z,14.25
2022-11-10T19:26:10.733Z,21.25
2022-11-10T19:28:56.753Z,21.75
2022-11-10T19:31:43.814Z,20.50
2022-11-10T19:34:29.822Z,21.50
2022-11-10T19:37:15.999Z,18.00
2022-11-10T19:40:05.057Z,21.25
2022-11-10T19:42:55.838Z,14.00
2022-11-10T19:45:44.451Z,16.25
2022-11-10T19:48:32.576Z,13.50
2022-11-10T19:51:19.140Z,12.50
2022-11-10T19:54:04.780Z,12.25
2022-11-10T19:56:51.388Z,11.50
2022-11-10T19:59:36.666Z,12.75
2022-11-10T20:02:22.356Z,11.25
2022-11-10T20:05:09.005Z,15.00
2022-11-10T20:07:54.642Z,17.50
2022-11-10T20:10:42.817Z,18.00
2022-11-10T20:13:29.392Z,16.50
2022-11-10T20:16:14.944Z,13.75
2022-11-10T20:19:00.959Z,14.25
2022-11-10T20:22:00.840Z,15.25
2022-11-10T20:24:50.924Z,17.75
2022-11-10T20:27:37.635Z,14.25
2022-11-10T20:30:32.153Z,17.00
2022-11-10T20:33:21.049Z,18.00
2022-11-10T20:36:11.033Z,17.75
2022-11-10T20:39:00.731Z,24.25
2022-11-10T20:41:46.865Z,28.00
2022-11-10T20:44:32.947Z,24.25
2022-11-10T20:51:21.226Z,29.00
2022-11-10T20:58:35.636Z,33.25
2022-11-10T21:01:21.627Z,26.00
2022-11-10T21:04:11.457Z,10.75
2022-11-10T21:07:23.737Z,26.75
2022-11-10T21:10:23.055Z,37.00
2022-11-10T21:13:08.475Z,29.00
2022-11-10T21:15:56.768Z,20.00
2022-11-10T21:18:45.767Z,17.25
2022-11-10T21:21:31.831Z,14.00
2022-11-10T21:24:21.883Z,18.25
2022-11-10T21:27:10.279Z,15.00
2022-11-10T21:29:56.590Z,15.50
2022-11-10T21:32:42.188Z,13.75
2022-11-10T21:35:28.100Z,17.50
2022-11-10T21:38:14.020Z,13.75
2022-11-10T21:40:59.978Z,14.00
2022-11-10T21:43:47.153Z,16.75
2022-11-10T21:46:32.883Z,17.50
2022-11-10T21:49:18.324Z,15.75
2022-11-10T21:52:04.211Z,18.00
2022-11-10T21:54:50.261Z,17.75
2022-11-10T21:57:36.378Z,29.25
2022-11-10T22:00:23.373Z,15.75
2022-11-10T22:03:09.053Z,16.50
2022-11-10T22:05:54.459Z,15.75
2022-11-10T22:08:42.389Z,1.00
2022-11-10T22:11:27.790Z,17.50
2022-11-10T22:14:13.961Z,15.50
2022-11-10T22:17:01.032Z,21.25
2022-11-10T22:19:46.385Z,22.50
2022-11-10T22:22:31.870Z,21.75
2022-11-10T22:25:17.453Z,23.75
2022-11-10T22:28:03.733Z,20.00
2022-11-10T22:30:49.498Z,19.75
2022-11-10T22:33:39.522Z,19.75
2022-11-10T22:36:24.798Z,20.75
2022-11-10T22:39:16.279Z,18.75
2022-11-10T22:42:01.840Z,21.00
2022-11-10T22:44:47.617Z,16.00
2022-11-10T22:47:33.228Z,18.25
2022-11-10T22:50:20.592Z,15.50
2022-11-10T22:53:05.868Z,18.75
2022-11-10T22:55:51.627Z,18.00
2022-11-10T22:58:37.911Z,17.50
2022-11-10T23:01:23.572Z,17.25
2022-11-10T23:04:10.736Z,15.75
2022-11-10T23:06:58.080Z,16.50
2022-11-10T23:09:43.555Z,16.75
2022-11-10T23:12:28.884Z,18.50
2022-11-10T23:15:14.670Z,15.75
2022-11-10T23:18:06.297Z,16.75
2022-11-10T23:20:57.226Z,17.00
2022-11-10T23:23:46.521Z,12.25
2022-11-10T23:26:31.910Z,5.75
2022-11-10T23:29:17.824Z,16.25
2022-11-10T23:32:04.825Z,13.50
2022-11-10T23:34:51.331Z,11.75
2022-11-10T23:37:36.975Z,12.75
2022-11-10T23:40:25.179Z,13.00
2022-11-10T23:43:11.217Z,15.50
2022-11-10T23:46:07.188Z,14.50
2022-11-10T23:48:52.780Z,14.50
2022-11-10T23:51:38.770Z,14.25
2022-11-10T23:54:24.485Z,8.50
2022-11-10T23:57:12.187Z,9.50
2022-11-10T23:59:57.829Z,12.75
